Time;durP1;ratioP1;P1;durP2;ratioP2;P2;SDS_P1;SDS_P2;PMS_P1;PMS_P2;Temp;Humidity;BMP_temperature;BMP_pressure;BME280_temperature;BME280_humidity;BME280_pressure;Samples;Min_cycle;Max_cycle;Signal;HPM_P1;HPM_P2
2023/04/12 00:00:10;;;;;;;8.50;8.30;;;21.90;51.40;;;;;;5115351;28;21004;-64
2023/04/12 00:02:37;;;;;;;8.80;8.60;;;21.90;51.50;;;;;;5112776;28;20532;-64
2023/04/12 00:05:05;;;;;;;8.73;8.53;;;21.90;51.50;;;;;;5087785;28;20504;-64
2023/04/12 00:07:32;;;;;;;8.23;8.03;;;21.80;51.50;;;;;;5093948;28;20526;-65
2023/04/12 00:10:00;;;;;;;8.93;8.63;;;21.80;51.50;;;;;;5095524;28;20441;-64
2023/04/12 00:12:27;;;;;;;8.40;8.20;;;21.80;51.60;;;;;;5105851;28;20451;-65
2023/04/12 00:14:54;;;;;;;7.73;7.63;;;21.80;51.60;;;;;;5104220;28;20520;-64
2023/04/12 00:17:21;;;;;;;9.10;8.90;;;21.80;51.60;;;;;;5114661;28;20442;-64
2023/04/12 00:19:49;;;;;;;9.00;8.70;;;21.80;51.70;;;;;;5113884;28;20582;-64
2023/04/12 00:22:16;;;;;;;8.60;8.40;;;21.80;51.70;;;;;;5112234;28;20441;-64
2023/04/12 00:24:43;;;;;;;8.60;8.40;;;21.80;51.80;;;;;;5113726;28;20499;-64
2023/04/12 00:27:11;;;;;;;8.40;8.20;;;21.70;51.70;;;;;;5114001;28;20864;-64
2023/04/12 00:29:38;;;;;;;8.70;8.40;;;21.70;51.80;;;;;;5108285;28;20475;-64
2023/04/12 00:32:05;;;;;;;8.63;8.43;;;21.70;51.80;;;;;;5093941;28;20474;-64
2023/04/12 00:34:32;;;;;;;8.87;8.67;;;21.70;51.80;;;;;;5094025;28;20998;-64
2023/04/12 00:37:00;;;;;;;8.77;8.57;;;21.70;51.80;;;;;;5093711;28;20502;-64
2023/04/12 00:39:27;;;;;;;8.87;8.67;;;21.70;51.80;;;;;;5093821;28;21004;-64
2023/04/12 00:41:55;;;;;;;8.10;7.90;;;21.70;51.90;;;;;;5093710;28;20474;-64
2023/04/12 00:44:24;;;;;;;8.90;8.70;;;21.70;52.00;;;;;;5093797;28;20490;-64
2023/04/12 00:46:51;;;;;;;8.93;8.67;;;21.60;51.90;;;;;;5093453;28;20898;-64
2023/04/12 00:49:18;;;;;;;8.20;8.00;;;21.60;51.90;;;;;;5093725;28;20874;-64
2023/04/12 00:51:45;;;;;;;8.77;8.57;;;21.60;51.90;;;;;;5093654;28;20473;-64
2023/04/12 00:54:13;;;;;;;8.20;8.00;;;21.60;51.90;;;;;;5093508;28;20461;-64
2023/04/12 00:56:43;;;;;;;8.87;8.67;;;21.60;51.90;;;;;;5093349;28;20557;-63
2023/04/12 00:59:10;;;;;;;8.40;8.20;;;21.60;51.90;;;;;;5093479;28;20454;-64
2023/04/12 01:01:39;;;;;;;8.70;8.40;;;21.60;51.90;;;;;;5093286;28;21033;-64
2023/04/12 01:04:08;;;;;;;8.73;8.53;;;21.60;52.00;;;;;;5093339;28;20525;-64
2023/04/12 01:06:46;;;;;;;9.67;9.47;;;21.60;52.00;;;;;;5093146;28;20524;-64
2023/04/12 01:09:29;;;;;;;8.20;8.00;;;21.50;52.00;;;;;;5107505;28;20481;-64
2023/04/12 01:12:08;;;;;;;8.37;8.17;;;21.50;52.00;;;;;;5111445;28;20490;-64
2023/04/12 01:14:46;;;;;;;8.40;8.20;;;21.50;52.00;;;;;;5105011;28;20442;-64
2023/04/12 01:17:23;;;;;;;8.87;8.67;;;21.50;52.10;;;;;;5104797;28;21085;-64
2023/04/12 01:19:57;;;;;;;8.47;8.27;;;21.50;52.20;;;;;;5112173;28;20819;-64
2023/04/12 01:22:38;;;;;;;8.80;8.60;;;21.50;52.20;;;;;;5107418;28;20541;-64
2023/04/12 01:25:22;;;;;;;8.60;8.40;;;21.50;52.20;;;;;;5105330;28;20548;-64
2023/04/12 01:27:54;;;;;;;8.53;8.37;;;21.50;52.20;;;;;;5112778;28;20445;-64
2023/04/12 01:30:22;;;;;;;8.87;8.67;;;21.50;52.20;;;;;;5111160;28;20476;-64
2023/04/12 01:32:51;;;;;;;8.57;8.37;;;21.50;52.30;;;;;;5092756;28;20482;-64
2023/04/12 01:35:20;;;;;;;8.27;8.13;;;21.50;52.30;;;;;;5092748;28;20510;-63
2023/04/12 01:37:47;;;;;;;8.47;8.27;;;21.50;52.40;;;;;;5092638;28;20439;-64
2023/04/12 01:40:14;;;;;;;8.30;8.10;;;21.50;52.40;;;;;;5092687;28;20557;-64
2023/04/12 01:42:41;;;;;;;8.70;8.50;;;21.50;52.40;;;;;;5092730;28;20443;-63
2023/04/12 01:45:10;;;;;;;8.67;8.37;;;21.50;52.40;;;;;;5092344;28;20505;-64
2023/04/12 01:47:38;;;;;;;9.27;8.97;;;21.50;52.40;;;;;;5092394;28;20533;-64
2023/04/12 01:50:14;;;;;;;8.50;8.30;;;21.40;52.40;;;;;;5092924;28;20759;-64
2023/04/12 01:52:48;;;;;;;8.53;8.33;;;21.40;52.90;;;;;;5082509;28;20449;-64
2023/04/12 01:55:16;;;;;;;9.03;8.30;;;21.50;52.50;;;;;;5092401;28;20987;-64
2023/04/12 01:57:45;;;;;;;8.77;8.57;;;21.40;52.50;;;;;;5092069;28;20490;-64
2023/04/12 02:00:15;;;;;;;8.30;8.10;;;21.40;52.50;;;;;;5092135;28;20442;-64
2023/04/12 02:02:43;;;;;;;8.20;7.97;;;21.40;52.50;;;;;;5092372;28;20485;-64
2023/04/12 02:05:11;;;;;;;8.00;7.80;;;21.50;52.60;;;;;;5092290;28;20466;-65
2023/04/12 02:07:38;;;;;;;8.43;8.20;;;21.40;52.50;;;;;;5091976;28;20447;-64
2023/04/12 02:10:06;;;;;;;8.43;8.23;;;21.40;52.50;;;;;;5093205;28;20537;-65
2023/04/12 02:12:33;;;;;;;8.23;8.03;;;21.40;52.50;;;;;;5092071;28;20493;-64
2023/04/12 02:15:00;;;;;;;9.87;9.37;;;21.40;52.60;;;;;;5095917;28;20549;-64
2023/04/12 02:17:29;;;;;;;8.20;8.00;;;21.40;52.60;;;;;;5091837;28;20474;-64
2023/04/12 02:19:56;;;;;;;8.30;8.10;;;21.40;52.60;;;;;;5096374;28;20453;-64
2023/04/12 02:22:23;;;;;;;8.03;7.83;;;21.40;52.60;;;;;;5105097;28;20482;-64
2023/04/12 02:24:50;;;;;;;8.47;8.27;;;21.40;52.60;;;;;;5091823;28;20474;-64
2023/04/12 02:27:17;;;;;;;8.20;8.00;;;21.40;52.60;;;;;;5091816;28;20575;-64
2023/04/12 02:29:44;;;;;;;7.90;7.73;;;21.40;52.60;;;;;;5091677;28;20446;-64
2023/04/12 02:32:11;;;;;;;8.00;7.80;;;21.40;52.60;;;;;;5108346;28;20445;-64
2023/04/12 02:34:40;;;;;;;8.03;7.83;;;21.30;52.50;;;;;;5111776;28;20446;-64
2023/04/12 02:37:07;;;;;;;8.50;8.30;;;21.30;52.50;;;;;;5112050;28;20515;-64
2023/04/12 02:39:34;;;;;;;8.20;8.00;;;21.30;52.60;;;;;;5111787;28;20451;-64
2023/04/12 02:42:01;;;;;;;7.97;7.87;;;21.40;52.60;;;;;;5111496;28;20980;-64
2023/04/12 02:44:29;;;;;;;8.10;7.80;;;21.30;52.60;;;;;;5111731;28;20530;-64
2023/04/12 02:46:56;;;;;;;8.70;8.50;;;21.30;52.60;;;;;;5111812;28;20898;-64
2023/04/12 02:49:23;;;;;;;8.30;8.10;;;21.30;52.60;;;;;;5111706;28;20499;-64
2023/04/12 02:51:51;;;;;;;9.13;8.67;;;21.30;52.60;;;;;;5111570;28;20492;-64
2023/04/12 02:54:18;;;;;;;8.10;7.90;;;21.30;52.70;;;;;;5111855;28;20477;-65
2023/04/12 02:56:45;;;;;;;7.80;7.70;;;21.30;52.60;;;;;;5111422;28;20501;-64
2023/04/12 02:59:12;;;;;;;8.23;8.03;;;21.30;52.70;;;;;;5111537;28;20474;-64
2023/04/12 03:01:39;;;;;;;8.60;8.40;;;21.30;52.70;;;;;;5111638;28;20564;-64
2023/04/12 03:04:06;;;;;;;7.87;7.77;;;21.30;52.70;;;;;;5108093;28;20475;-65
2023/04/12 03:06:33;;;;;;;8.20;8.00;;;21.30;52.70;;;;;;5091270;28;20887;-64
2023/04/12 03:09:02;;;;;;;8.00;7.80;;;21.30;52.70;;;;;;5091572;28;20477;-64
2023/04/12 03:11:28;;;;;;;7.70;7.50;;;21.30;52.70;;;;;;5107309;28;20481;-65
2023/04/12 03:13:55;;;;;;;7.70;7.50;;;21.30;52.80;;;;;;5096799;28;20996;-65
2023/04/12 03:16:28;;;;;;;7.50;7.30;;;21.30;52.80;;;;;;5091530;28;21095;-64
2023/04/12 03:18:55;;;;;;;8.97;8.67;;;21.30;52.70;;;;;;5091083;28;20446;-64
2023/04/12 03:21:22;;;;;;;8.17;7.97;;;21.30;52.80;;;;;;5091233;28;20521;-64
2023/04/12 03:23:50;;;;;;;8.43;8.23;;;21.30;52.80;;;;;;5091457;28;20474;-64
2023/04/12 03:26:19;;;;;;;8.83;8.53;;;21.30;52.80;;;;;;5091236;28;20462;-64
2023/04/12 03:28:46;;;;;;;8.57;8.37;;;21.30;52.80;;;;;;5103970;28;20948;-65
2023/04/12 03:31:14;;;;;;;8.17;7.97;;;21.30;52.90;;;;;;5111174;28;20438;-64
2023/04/12 03:33:41;;;;;;;7.40;7.30;;;21.30;52.80;;;;;;5075666;28;20475;-64
2023/04/12 03:36:09;;;;;;;7.90;7.70;;;21.20;52.80;;;;;;5091084;28;20561;-64
2023/04/12 03:38:36;;;;;;;7.37;7.27;;;21.20;52.80;;;;;;5093285;28;20446;-64
2023/04/12 03:41:03;;;;;;;7.30;7.20;;;21.30;52.90;;;;;;5111386;28;20560;-65
2023/04/12 03:43:34;;;;;;;8.00;7.50;;;21.20;52.80;;;;;;5113955;28;20472;-64
2023/04/12 03:46:01;;;;;;;8.07;7.77;;;21.20;52.80;;;;;;5114983;28;20465;-64
2023/04/12 03:48:28;;;;;;;8.30;8.10;;;21.20;52.80;;;;;;5114899;28;20991;-64
2023/04/12 03:50:58;;;;;;;8.00;7.80;;;21.20;52.80;;;;;;5114972;28;20501;-65
2023/04/12 03:53:25;;;;;;;7.30;7.10;;;21.20;52.90;;;;;;5114728;28;20453;-65
2023/04/12 03:55:53;;;;;;;7.93;7.80;;;21.20;52.90;;;;;;5115000;28;20488;-65
2023/04/12 03:58:20;;;;;;;7.73;7.53;;;21.20;52.80;;;;;;5114634;28;20489;-64
2023/04/12 04:00:49;;;;;;;8.30;8.10;;;21.20;52.90;;;;;;5114653;28;20502;-64
2023/04/12 04:03:16;;;;;;;7.40;7.30;;;21.20;52.80;;;;;;5115039;28;20808;-64
2023/04/12 04:05:43;;;;;;;7.90;7.70;;;21.20;52.80;;;;;;5114843;28;20524;-65
2023/04/12 04:08:10;;;;;;;7.63;7.53;;;21.20;52.90;;;;;;5114149;28;20866;-65
2023/04/12 04:10:37;;;;;;;7.00;6.90;;;21.20;52.90;;;;;;5115050;28;20441;-64
2023/04/12 04:13:04;;;;;;;7.30;7.10;;;21.20;52.90;;;;;;5110937;28;20473;-64
2023/04/12 04:15:31;;;;;;;7.10;7.00;;;21.20;52.90;;;;;;5094337;28;20498;-64
2023/04/12 04:17:59;;;;;;;5.15;5.05;;;21.20;52.90;;;;;;5104832;28;20496;-64
2023/04/12 04:20:26;;;;;;;6.80;6.70;;;21.30;53.00;;;;;;5114091;28;20661;-65
2023/04/12 04:22:53;;;;;;;6.43;6.23;;;21.30;52.90;;;;;;5114541;28;20535;-65
2023/04/12 04:25:20;;;;;;;7.43;7.23;;;21.30;53.00;;;;;;5114496;28;20523;-65
2023/04/12 04:27:48;;;;;;;6.57;6.37;;;21.30;53.30;;;;;;5114039;28;20434;-65
2023/04/12 04:30:15;;;;;;;7.17;7.00;;;21.30;53.40;;;;;;5114972;28;20449;-65
2023/04/12 04:32:43;;;;;;;6.70;6.50;;;21.30;53.40;;;;;;5114461;28;20446;-64
2023/04/12 04:35:11;;;;;;;5.77;5.67;;;21.30;53.50;;;;;;5113863;28;20478;-64
2023/04/12 04:37:40;;;;;;;7.20;6.90;;;21.20;53.50;;;;;;5114120;28;20975;-64
2023/04/12 04:40:08;;;;;;;6.33;6.23;;;21.20;53.50;;;;;;5114244;28;20968;-64
2023/04/12 04:42:37;;;;;;;7.27;6.80;;;21.30;53.30;;;;;;5114176;28;20904;-64
2023/04/12 04:45:11;;;;;;;8.30;7.60;;;21.30;53.10;;;;;;5113937;28;20469;-64
2023/04/12 04:47:38;;;;;;;8.27;7.77;;;21.40;53.20;;;;;;5105295;28;20976;-65
2023/04/12 04:50:06;;;;;;;9.60;9.03;;;21.40;53.70;;;;;;5098729;28;20528;-64
2023/04/12 04:52:36;;;;;;;8.40;8.00;;;21.40;54.30;;;;;;5113907;28;20464;-65
2023/04/12 04:55:04;;;;;;;9.73;9.20;;;21.50;55.30;;;;;;5112920;28;20471;-65
2023/04/12 04:57:30;;;;;;;7.23;7.03;;;21.50;55.40;;;;;;5113832;28;20879;-65
2023/04/12 04:59:57;;;;;;;7.90;7.40;;;21.60;55.40;;;;;;5113658;28;20520;-65
2023/04/12 05:02:24;;;;;;;8.00;7.40;;;21.60;55.10;;;;;;5113795;28;20564;-66
2023/04/12 05:04:51;;;;;;;7.23;6.67;;;21.70;55.00;;;;;;5113900;28;20445;-65
2023/04/12 05:07:18;;;;;;;8.13;7.37;;;21.70;54.70;;;;;;5113755;28;20446;-65
2023/04/12 05:09:46;;;;;;;6.80;6.60;;;21.80;54.60;;;;;;5113917;28;20456;-66
2023/04/12 05:12:13;;;;;;;7.60;7.20;;;21.80;54.40;;;;;;5113719;28;20477;-65
2023/04/12 05:14:42;;;;;;;8.10;7.60;;;21.80;54.20;;;;;;5113453;28;20957;-65
2023/04/12 05:17:08;;;;;;;8.10;7.60;;;21.90;54.10;;;;;;5113307;28;20481;-65
2023/04/12 05:19:35;;;;;;;7.50;6.90;;;21.90;53.90;;;;;;5113453;28;20525;-65
2023/04/12 05:22:02;;;;;;;8.87;8.37;;;21.90;53.80;;;;;;5113398;28;20825;-65
2023/04/12 05:24:29;;;;;;;7.10;6.80;;;22.00;53.60;;;;;;5113308;28;20482;-66
2023/04/12 05:26:57;;;;;;;6.70;6.40;;;22.00;53.50;;;;;;5113109;28;21109;-65
2023/04/12 05:29:25;;;;;;;7.77;7.10;;;22.00;53.40;;;;;;5113137;28;20445;-65
2023/04/12 05:31:52;;;;;;;6.73;6.53;;;22.00;53.20;;;;;;5113197;28;20689;-65
2023/04/12 05:34:19;;;;;;;6.70;6.50;;;22.00;53.10;;;;;;5113195;28;20520;-65
2023/04/12 05:36:46;;;;;;;7.90;7.50;;;22.00;53.00;;;;;;5117480;22;20491;-62
2023/04/12 05:39:13;;;;;;;6.97;6.77;;;22.00;52.90;;;;;;5079925;28;20443;-63
2023/04/12 05:41:40;;;;;;;10.80;10.40;;;22.00;52.70;;;;;;5071619;28;20483;-62
2023/04/12 05:44:08;;;;;;;10.23;9.83;;;22.10;52.70;;;;;;5071611;28;20447;-63
2023/04/12 05:46:35;;;;;;;11.93;11.50;;;22.10;52.60;;;;;;5071562;28;20566;-63
2023/04/12 05:49:03;;;;;;;10.73;10.23;;;22.10;52.50;;;;;;5071621;28;20483;-63
2023/04/12 05:51:30;;;;;;;10.50;10.10;;;22.10;52.40;;;;;;5071446;28;20550;-63
2023/04/12 05:53:56;;;;;;;10.03;9.73;;;22.10;52.40;;;;;;5071450;28;20455;-63
2023/04/12 05:56:23;;;;;;;10.50;10.00;;;22.10;52.20;;;;;;5071414;28;20505;-63
2023/04/12 05:58:51;;;;;;;11.27;10.50;;;22.10;52.20;;;;;;5071164;28;20444;-62
2023/04/12 06:01:20;;;;;;;10.23;9.83;;;22.10;52.10;;;;;;5071287;28;20504;-63
2023/04/12 06:03:48;;;;;;;9.67;9.10;;;22.10;52.00;;;;;;5071609;28;20451;-63
2023/04/12 06:06:15;;;;;;;10.17;9.80;;;22.10;52.00;;;;;;5070937;28;20499;-63
2023/04/12 06:08:42;;;;;;;10.03;9.73;;;22.10;51.90;;;;;;5070944;28;20475;-63
2023/04/12 06:11:10;;;;;;;10.20;9.70;;;22.10;51.90;;;;;;5071345;28;20485;-63
2023/04/12 06:13:38;;;;;;;10.17;9.70;;;22.10;51.90;;;;;;5071126;28;20450;-63
2023/04/12 06:16:05;;;;;;;9.80;9.40;;;22.10;51.80;;;;;;5071181;28;20550;-63
2023/04/12 06:18:34;;;;;;;9.60;9.30;;;22.10;51.70;;;;;;5070976;28;20522;-63
2023/04/12 06:21:01;;;;;;;10.13;9.83;;;22.10;51.70;;;;;;5071032;28;20486;-63
2023/04/12 06:23:28;;;;;;;10.00;9.70;;;22.10;51.60;;;;;;5071013;28;20490;-63
2023/04/12 06:25:54;;;;;;;9.70;9.30;;;22.10;51.60;;;;;;5070906;28;20491;-63
2023/04/12 06:28:21;;;;;;;8.53;8.33;;;22.10;51.60;;;;;;5070758;28;20534;-63
2023/04/12 06:30:48;;;;;;;9.00;8.80;;;22.10;51.60;;;;;;5070760;28;20479;-63
2023/04/12 06:33:15;;;;;;;9.93;9.60;;;22.00;51.50;;;;;;5070950;28;20470;-63
2023/04/12 06:35:44;;;;;;;9.30;9.07;;;22.00;51.50;;;;;;5032591;28;1093840;-63
2023/04/12 06:38:10;;;;;;;9.67;9.27;;;22.10;51.50;;;;;;5071445;28;20201;-63
2023/04/12 06:40:37;;;;;;;10.27;9.97;;;22.10;51.50;;;;;;5071647;28;20534;-63
2023/04/12 06:43:04;;;;;;;9.20;9.00;;;22.00;51.30;;;;;;5071516;28;20519;-63
2023/04/12 06:45:31;;;;;;;9.93;9.33;;;22.00;51.30;;;;;;5071361;28;21062;-63
2023/04/12 06:47:58;;;;;;;9.10;8.70;;;22.00;51.30;;;;;;5071274;28;20804;-63
2023/04/12 06:50:25;;;;;;;9.27;9.00;;;22.00;51.80;;;;;;5071494;28;20890;-63
2023/04/12 06:52:54;;;;;;;9.23;9.00;;;22.00;51.30;;;;;;5071601;28;20435;-63
2023/04/12 06:55:21;;;;;;;9.10;8.80;;;22.00;51.30;;;;;;5071425;28;20871;-63
2023/04/12 06:57:50;;;;;;;8.70;8.50;;;22.10;51.30;;;;;;5071019;28;20962;-63
2023/04/12 07:00:18;;;;;;;9.40;9.10;;;22.10;51.30;;;;;;5071509;28;20447;-63
2023/04/12 07:02:45;;;;;;;9.53;9.23;;;22.10;51.40;;;;;;5071218;28;20514;-63
2023/04/12 07:05:12;;;;;;;9.00;8.70;;;22.10;51.30;;;;;;5071516;28;20454;-63
2023/04/12 07:07:39;;;;;;;9.13;8.93;;;22.10;51.30;;;;;;5071385;28;20522;-63
2023/04/12 07:10:08;;;;;;;9.77;9.47;;;22.20;51.40;;;;;;5071271;28;20482;-63
2023/04/12 07:12:35;;;;;;;9.80;9.50;;;22.20;51.30;;;;;;5071516;28;20439;-63
2023/04/12 07:15:02;;;;;;;9.17;8.87;;;22.20;51.30;;;;;;5071258;28;20988;-63
2023/04/12 07:17:29;;;;;;;9.00;8.70;;;22.20;51.20;;;;;;5072724;28;20546;-63
2023/04/12 07:19:56;;;;;;;9.23;9.03;;;22.20;51.20;;;;;;5075271;28;20916;-63
2023/04/12 07:22:23;;;;;;;9.90;9.60;;;22.20;51.20;;;;;;5075120;28;20924;-61
2023/04/12 07:24:51;;;;;;;9.57;9.27;;;22.20;51.10;;;;;;5075004;28;20520;-62
2023/04/12 07:27:19;;;;;;;9.43;9.20;;;22.20;51.10;;;;;;5074805;28;20491;-63
2023/04/12 07:29:46;;;;;;;8.90;8.70;;;22.20;51.10;;;;;;5074989;28;20475;-63
2023/04/12 07:32:13;;;;;;;9.57;9.17;;;22.30;51.10;;;;;;5075126;28;20528;-63
2023/04/12 07:34:40;;;;;;;10.87;10.47;;;22.30;51.10;;;;;;5074878;28;20444;-63
2023/04/12 07:37:07;;;;;;;9.63;9.43;;;22.20;51.00;;;;;;5074637;28;20502;-62
2023/04/12 07:39:34;;;;;;;9.70;9.50;;;22.30;51.00;;;;;;5074940;28;20538;-62
2023/04/12 07:42:02;;;;;;;9.77;9.57;;;22.30;51.00;;;;;;5074709;28;20451;-62
2023/04/12 07:44:30;;;;;;;10.10;9.80;;;22.30;50.90;;;;;;5074727;28;20434;-63
2023/04/12 07:46:57;;;;;;;10.23;10.00;;;22.30;50.90;;;;;;5074436;28;20878;-63
2023/04/12 07:49:24;;;;;;;9.40;9.20;;;22.20;50.80;;;;;;5074633;28;20875;-62
2023/04/12 07:51:51;;;;;;;9.80;9.50;;;22.20;51.30;;;;;;5074581;28;20808;-62
2023/04/12 07:54:18;;;;;;;9.30;9.10;;;22.30;50.80;;;;;;5074591;28;20871;-62
2023/04/12 07:56:58;;;;;;;9.53;9.33;;;22.20;50.80;;;;;;5074291;28;20502;-63
2023/04/12 07:59:25;;;;;;;10.57;10.27;;;22.20;50.70;;;;;;5074713;28;20438;-62
2023/04/12 08:01:53;;;;;;;9.73;9.43;;;22.20;50.70;;;;;;5074361;28;20522;-63
2023/04/12 08:04:20;;;;;;;8.60;8.40;;;22.20;50.70;;;;;;5074363;28;20529;-62
2023/04/12 08:06:47;;;;;;;9.03;8.83;;;22.20;50.70;;;;;;5074137;28;20485;-62
2023/04/12 08:09:14;;;;;;;9.60;9.40;;;22.20;50.70;;;;;;5074215;28;20871;-63
2023/04/12 08:11:41;;;;;;;8.53;8.33;;;22.20;50.70;;;;;;5074234;28;20446;-62
2023/04/12 08:14:09;;;;;;;8.60;8.37;;;22.20;50.70;;;;;;5074126;28;21001;-62
2023/04/12 08:16:36;;;;;;;9.50;9.30;;;22.20;50.70;;;;;;5073844;28;20466;-63
2023/04/12 08:19:04;;;;;;;8.47;8.27;;;22.20;50.60;;;;;;5074164;28;20942;-63
2023/04/12 08:21:31;;;;;;;9.37;9.17;;;22.20;50.70;;;;;;5073966;28;20478;-62
2023/04/12 08:23:58;;;;;;;8.80;8.60;;;22.20;50.60;;;;;;5074090;28;20569;-62
2023/04/12 08:26:26;;;;;;;9.40;9.20;;;22.20;50.60;;;;;;5073920;28;20501;-63
2023/04/12 08:28:53;;;;;;;8.70;8.50;;;22.10;51.00;;;;;;5073520;28;20449;-62
2023/04/12 08:31:19;;;;;;;9.23;8.87;;;22.20;50.60;;;;;;5073930;28;20486;-62
2023/04/12 08:33:46;;;;;;;8.60;8.40;;;22.20;50.60;;;;;;5073911;28;20509;-62
2023/04/12 08:36:15;;;;;;;8.87;8.57;;;22.10;50.50;;;;;;5073591;28;20562;-62
2023/04/12 08:38:42;;;;;;;8.70;8.50;;;22.10;50.50;;;;;;5073507;28;20443;-62
2023/04/12 08:41:09;;;;;;;9.10;8.90;;;22.20;50.60;;;;;;5073674;28;20478;-62
2023/04/12 08:43:37;;;;;;;9.63;9.33;;;22.20;50.60;;;;;;5073557;28;20561;-62
2023/04/12 08:46:06;;;;;;;9.30;9.07;;;22.20;50.60;;;;;;5073509;28;20506;-61
2023/04/12 08:48:33;;;;;;;11.07;10.77;;;22.20;50.60;;;;;;5073591;28;20447;-63
2023/04/12 08:51:01;;;;;;;9.50;9.30;;;22.20;50.60;;;;;;5073419;28;20442;-62
2023/04/12 08:53:30;;;;;;;9.47;9.27;;;22.20;50.60;;;;;;5073511;28;20447;-62
2023/04/12 08:55:57;;;;;;;9.47;9.27;;;22.20;50.60;;;;;;5073400;28;20544;-62
2023/04/12 08:58:24;;;;;;;9.17;8.97;;;22.20;50.60;;;;;;5073128;28;20470;-63
2023/04/12 09:00:52;;;;;;;9.30;9.10;;;22.20;50.60;;;;;;5073277;28;20443;-62
2023/04/12 09:03:19;;;;;;;9.00;8.80;;;22.30;50.70;;;;;;5073241;28;20510;-62
2023/04/12 09:05:46;;;;;;;9.60;9.40;;;22.30;50.60;;;;;;5073125;28;20473;-62
2023/04/12 09:08:12;;;;;;;8.67;8.47;;;22.30;50.60;;;;;;5072813;28;20482;-62
2023/04/12 09:10:41;;;;;;;9.40;9.20;;;22.30;50.60;;;;;;5073268;28;20634;-62
2023/04/12 09:13:09;;;;;;;9.00;8.80;;;22.30;50.60;;;;;;5072997;28;20823;-62
2023/04/12 09:15:36;;;;;;;9.20;9.00;;;22.30;50.60;;;;;;5072971;28;20502;-62
2023/04/12 09:18:05;;;;;;;9.30;9.10;;;22.30;50.50;;;;;;5072809;28;20483;-60
2023/04/12 09:20:32;;;;;;;9.30;9.00;;;22.30;50.50;;;;;;5072861;28;20459;-62
2023/04/12 09:22:59;;;;;;;9.80;9.60;;;22.30;50.50;;;;;;5072844;28;20511;-62
2023/04/12 09:25:37;;;;;;;9.00;8.80;;;22.30;50.50;;;;;;5072788;28;20503;-62
2023/04/12 09:28:19;;;;;;;9.40;9.20;;;22.30;50.40;;;;;;5072779;28;20447;-62
2023/04/12 09:30:50;;;;;;;9.57;9.27;;;22.30;50.50;;;;;;5073074;28;20447;-63
2023/04/12 09:33:18;;;;;;;9.03;8.83;;;22.30;50.40;;;;;;5072642;28;20984;-62
2023/04/12 09:35:45;;;;;;;8.70;8.50;;;22.30;50.40;;;;;;5072427;28;20481;-62
2023/04/12 09:38:12;;;;;;;9.03;8.80;;;22.30;50.40;;;;;;5072503;28;20471;-62
2023/04/12 09:40:39;;;;;;;9.30;9.10;;;22.30;50.40;;;;;;5072203;28;20475;-62
2023/04/12 09:43:08;;;;;;;9.07;8.87;;;22.30;50.40;;;;;;5072686;28;20903;-62
2023/04/12 09:45:37;;;;;;;8.90;8.70;;;22.30;50.40;;;;;;5072488;28;20743;-63
2023/04/12 09:48:05;;;;;;;8.57;8.47;;;22.30;50.30;;;;;;5072140;28;20999;-62
2023/04/12 09:50:33;;;;;;;9.30;9.10;;;22.30;50.30;;;;;;5072632;28;20443;-62
2023/04/12 09:53:01;;;;;;;9.00;8.80;;;22.20;50.20;;;;;;5072358;28;20804;-63
2023/04/12 09:55:30;;;;;;;9.80;9.50;;;22.20;50.30;;;;;;5072210;28;21002;-62
2023/04/12 09:58:00;;;;;;;8.60;8.40;;;22.30;50.40;;;;;;5072019;28;20758;-62
2023/04/12 10:00:32;;;;;;;8.70;8.50;;;22.20;50.30;;;;;;5072404;28;21046;-62
2023/04/12 10:03:00;;;;;;;8.77;8.57;;;22.30;50.40;;;;;;5071949;28;20478;-62
2023/04/12 10:05:27;;;;;;;8.17;7.97;;;22.20;50.30;;;;;;5071987;28;20478;-63
2023/04/12 10:07:55;;;;;;;9.03;8.73;;;22.20;50.30;;;;;;5071684;28;20534;-62
2023/04/12 10:10:23;;;;;;;8.70;8.50;;;22.20;50.30;;;;;;5072161;28;20483;-62
2023/04/12 10:12:50;;;;;;;8.80;8.60;;;22.20;50.30;;;;;;5071922;28;20535;-62
2023/04/12 10:15:19;;;;;;;9.70;9.50;;;22.20;50.30;;;;;;5071911;28;20884;-62
2023/04/12 10:17:49;;;;;;;8.90;8.70;;;22.20;50.30;;;;;;5071724;28;20477;-62
2023/04/12 10:20:17;;;;;;;8.80;8.60;;;22.20;50.30;;;;;;5071733;28;20988;-62
2023/04/12 10:22:46;;;;;;;8.70;8.50;;;22.20;50.30;;;;;;5071856;28;20482;-62
2023/04/12 10:25:14;;;;;;;8.30;8.20;;;22.20;50.30;;;;;;5072117;28;20471;-62
2023/04/12 10:27:42;;;;;;;8.43;8.23;;;22.20;50.30;;;;;;5071707;28;20508;-61
2023/04/12 10:30:31;;;;;;;8.87;8.63;;;22.20;50.30;;;;;;5071756;28;20455;-62
2023/04/12 10:33:19;;;;;;;7.80;7.70;;;22.20;50.30;;;;;;5065945;28;20487;-61
2023/04/12 10:35:58;;;;;;;7.87;7.77;;;22.20;50.30;;;;;;5071710;28;20471;-62
2023/04/12 10:38:30;;;;;;;8.73;8.53;;;22.30;50.40;;;;;;5071612;28;20825;-63
2023/04/12 10:41:15;;;;;;;7.93;7.83;;;22.30;50.40;;;;;;5071844;28;20449;-62
2023/04/12 10:43:42;;;;;;;5.77;5.67;;;22.30;50.40;;;;;;5071882;28;20486;-62
2023/04/12 10:46:50;;;;;;;7.17;6.97;;;22.30;50.40;;;;;;5071468;28;20495;-62
2023/04/12 10:49:19;;;;;;;6.43;6.33;;;22.30;50.40;;;;;;5071467;28;20447;-62
2023/04/12 10:52:12;;;;;;;6.00;5.90;;;22.30;50.40;;;;;;5070669;28;21037;-62
2023/04/12 10:54:39;;;;;;;6.07;5.97;;;22.30;50.40;;;;;;5071489;28;20439;-62
2023/04/12 10:57:07;;;;;;;6.13;6.03;;;22.30;50.30;;;;;;5071344;28;20507;-62
2023/04/12 10:59:54;;;;;;;6.50;6.40;;;22.30;50.40;;;;;;5071350;28;20478;-62
2023/04/12 11:02:21;;;;;;;6.20;6.10;;;22.30;50.30;;;;;;5071543;28;20442;-62
2023/04/12 11:05:08;;;;;;;6.17;6.07;;;22.30;50.30;;;;;;5071386;28;20567;-62
2023/04/12 11:07:45;;;;;;;6.43;6.33;;;22.30;50.30;;;;;;5071225;28;20500;-62
2023/04/12 11:10:16;;;;;;;6.00;5.90;;;22.30;50.20;;;;;;5071373;28;20481;-63
2023/04/12 11:12:48;;;;;;;6.80;6.70;;;22.30;50.30;;;;;;5071278;28;20953;-63
2023/04/12 11:15:15;;;;;;;7.23;7.13;;;22.30;50.30;;;;;;5071363;28;20610;-62
2023/04/12 11:17:42;;;;;;;7.53;7.43;;;22.40;50.30;;;;;;5071040;28;20467;-62
2023/04/12 11:20:14;;;;;;;7.00;6.90;;;22.30;50.20;;;;;;5071222;28;20531;-62
2023/04/12 11:22:41;;;;;;;7.10;7.00;;;22.40;50.30;;;;;;5071266;28;20954;-62
2023/04/12 11:25:08;;;;;;;6.90;6.70;;;22.30;50.20;;;;;;5070941;28;20576;-63
2023/04/12 11:27:36;;;;;;;6.93;6.77;;;22.30;50.20;;;;;;5071031;28;20535;-63
2023/04/12 11:30:04;;;;;;;6.70;6.50;;;22.40;50.20;;;;;;5071306;28;20492;-62
2023/04/12 11:32:33;;;;;;;6.90;6.80;;;22.30;50.20;;;;;;5071098;28;20518;-62
2023/04/12 11:35:00;;;;;;;7.40;7.20;;;22.30;50.10;;;;;;5071177;28;20521;-62
2023/04/12 11:37:31;;;;;;;7.50;7.30;;;22.30;50.20;;;;;;5071755;28;20988;-62
2023/04/12 11:39:58;;;;;;;7.10;7.00;;;22.30;50.20;;;;;;5071420;28;20516;-62
2023/04/12 11:42:26;;;;;;;7.67;7.57;;;22.30;50.20;;;;;;5071491;28;20443;-62
2023/04/12 11:44:54;;;;;;;7.10;7.00;;;22.30;50.20;;;;;;5071360;28;20475;-63
2023/04/12 11:47:22;;;;;;;7.63;7.43;;;22.30;50.30;;;;;;5070878;28;20463;-63
2023/04/12 11:49:51;;;;;;;7.70;7.50;;;22.30;50.20;;;;;;5071134;28;20443;-62
2023/04/12 11:52:18;;;;;;;7.67;7.47;;;22.30;50.20;;;;;;5070957;28;20530;-62
2023/04/12 11:54:48;;;;;;;7.80;7.70;;;22.30;50.20;;;;;;5071042;28;20478;-62
2023/04/12 11:57:16;;;;;;;8.20;8.00;;;22.30;50.20;;;;;;5070570;28;20495;-62
2023/04/12 11:59:45;;;;;;;7.30;7.20;;;22.30;50.20;;;;;;5071048;28;20475;-62
2023/04/12 12:02:13;;;;;;;8.00;7.80;;;22.30;50.20;;;;;;5070803;28;20451;-63
2023/04/12 12:04:41;;;;;;;7.10;7.00;;;22.30;50.20;;;;;;5073927;28;20565;-62
2023/04/12 12:07:08;;;;;;;7.60;7.50;;;22.30;50.20;;;;;;5074036;28;20542;-63
2023/04/12 12:09:36;;;;;;;7.27;7.17;;;22.30;50.20;;;;;;5074307;28;20826;-63
2023/04/12 12:12:05;;;;;;;6.87;6.77;;;22.30;50.30;;;;;;5074321;28;20451;-62
2023/04/12 12:14:34;;;;;;;7.20;7.10;;;22.30;50.30;;;;;;5074332;28;20478;-63
2023/04/12 12:17:02;;;;;;;7.10;7.00;;;22.30;50.30;;;;;;5074176;28;20471;-62
2023/04/12 12:19:31;;;;;;;7.13;7.03;;;22.30;50.30;;;;;;5074495;28;20447;-62
2023/04/12 12:22:14;;;;;;;7.03;6.83;;;22.30;50.30;;;;;;5074679;28;20848;-62
2023/04/12 12:24:46;;;;;;;7.23;7.13;;;22.30;50.30;;;;;;5074185;28;20604;-62
2023/04/12 12:27:18;;;;;;;7.93;7.80;;;22.40;50.40;;;;;;5074294;28;20470;-62
2023/04/12 12:29:49;;;;;;;8.70;8.50;;;22.40;50.40;;;;;;5074472;28;20693;-62
2023/04/12 12:32:18;;;;;;;7.60;7.40;;;22.40;50.40;;;;;;5074384;28;20447;-62
2023/04/12 12:34:51;;;;;;;7.30;7.20;;;22.40;50.30;;;;;;5074074;28;20497;-62
2023/04/12 12:37:21;;;;;;;7.20;7.10;;;22.40;50.30;;;;;;5073813;28;20974;-63
2023/04/12 12:40:06;;;;;;;7.20;7.00;;;22.40;50.30;;;;;;5074656;28;20448;-63
2023/04/12 12:42:34;;;;;;;7.40;7.20;;;22.40;50.30;;;;;;5076264;28;20958;-63
2023/04/12 12:45:03;;;;;;;7.00;6.80;;;22.40;50.30;;;;;;5073901;28;20513;-64
2023/04/12 12:47:30;;;;;;;7.53;7.40;;;22.40;50.30;;;;;;5073608;28;20989;-62
2023/04/12 12:49:57;;;;;;;6.97;6.87;;;22.40;50.30;;;;;;5073771;28;20880;-63
2023/04/12 12:52:24;;;;;;;6.90;6.80;;;22.40;50.80;;;;;;5073931;28;20443;-62